Time;durP1;ratioP1;P1;durP2;ratioP2;P2;SDS_P1;SDS_P2;PMS_P1;PMS_P2;Temp;Humidity;BMP_temperature;BMP_pressure;BME280_temperature;BME280_humidity;BME280_pressure;Samples;Min_cycle;Max_cycle;Signal;HPM_P1;HPM_P2
2022/10/06 00:01:51;;;;;;;10.90;3.10;;;;;;;10.11;81.48;100785.41;106146;1268;22528;-58
2022/10/06 00:04:22;;;;;;;17.30;3.20;;;;;;;10.07;81.72;100785.33;106199;1265;23103;-58
2022/10/06 00:06:54;;;;;;;12.60;2.60;;;;;;;10.02;81.66;100794.05;106105;1268;25404;-57
2022/10/06 00:09:25;;;;;;;12.60;3.20;;;;;;;9.99;81.77;100787.80;106313;1268;22524;-57
2022/10/06 00:11:56;;;;;;;9.30;2.90;;;;;;;9.98;81.56;100791.41;106320;1268;25464;-58
2022/10/06 00:14:28;;;;;;;10.90;2.80;;;;;;;9.97;81.74;100789.65;106203;1268;25384;-59
2022/10/06 00:17:00;;;;;;;12.00;3.30;;;;;;;9.96;81.81;100789.05;106245;1266;22594;-58
2022/10/06 00:19:31;;;;;;;10.90;3.10;;;;;;;9.94;81.93;100784.33;106214;1268;22583;-58
2022/10/06 00:22:02;;;;;;;13.40;3.30;;;;;;;9.92;82.02;100788.39;106304;1266;24286;-58
2022/10/06 00:24:33;;;;;;;11.10;3.80;;;;;;;9.91;82.15;100791.23;106396;1268;22760;-58
2022/10/06 00:27:05;;;;;;;11.50;2.80;;;;;;;9.90;82.26;100788.33;106436;1268;22560;-58
2022/10/06 00:29:41;;;;;;;11.20;3.20;;;;;;;9.90;82.16;100791.67;106186;1268;25509;-57
2022/10/06 00:32:13;;;;;;;10.70;2.50;;;;;;;9.89;82.43;100788.50;106162;1268;24296;-58
2022/10/06 00:34:44;;;;;;;8.70;2.70;;;;;;;9.89;82.52;100789.71;106147;1268;22533;-58
2022/10/06 00:37:16;;;;;;;8.00;2.30;;;;;;;9.88;82.54;100790.08;106233;1268;24189;-56
2022/10/06 00:39:47;;;;;;;9.30;2.20;;;;;;;9.87;82.72;100791.66;106238;1268;24412;-57
2022/10/06 00:42:27;;;;;;;9.70;2.40;;;;;;;9.86;82.88;100789.27;106229;1268;22585;-57
2022/10/06 00:45:02;;;;;;;8.80;2.20;;;;;;;9.86;82.83;100786.98;106181;1265;22668;-57
2022/10/06 00:47:34;;;;;;;9.40;2.20;;;;;;;9.84;83.04;100786.42;106276;1265;23936;-58
2022/10/06 00:50:08;;;;;;;9.00;2.40;;;;;;;9.85;83.20;100786.48;106548;1268;25432;-58
2022/10/06 00:52:41;;;;;;;8.70;2.50;;;;;;;9.85;83.33;100789.67;106208;1268;22537;-57
2022/10/06 00:55:13;;;;;;;9.10;1.90;;;;;;;9.82;83.33;100788.36;106149;1265;23055;-58
2022/10/06 00:57:47;;;;;;;11.20;3.00;;;;;;;9.80;83.52;100787.45;106160;1268;22544;-58
2022/10/06 01:00:19;;;;;;;7.70;2.40;;;;;;;9.79;83.65;100786.48;106204;1268;22538;-57
2022/10/06 01:02:56;;;;;;;9.00;2.20;;;;;;;9.78;83.65;100787.08;106099;1265;22646;-58
2022/10/06 01:05:34;;;;;;;9.20;2.20;;;;;;;9.78;83.85;100790.34;106247;1265;22528;-58
2022/10/06 01:08:05;;;;;;;12.10;2.90;;;;;;;9.78;83.68;100788.98;106174;1268;26434;-58
2022/10/06 01:10:37;;;;;;;10.30;2.20;;;;;;;9.77;83.88;100787.24;106327;1268;25279;-58
2022/10/06 01:13:10;;;;;;;9.40;2.80;;;;;;;9.78;83.99;100788.27;106239;1265;22554;-57
2022/10/06 01:15:48;;;;;;;10.00;3.00;;;;;;;9.78;84.19;100788.33;106253;1268;22976;-58
2022/10/06 01:18:22;;;;;;;11.20;2.30;;;;;;;9.80;84.25;100792.59;106401;1265;25350;-58
2022/10/06 01:21:04;;;;;;;10.50;2.40;;;;;;;9.82;84.30;100793.85;106131;1265;22547;-58
2022/10/06 01:23:36;;;;;;;17.30;4.40;;;;;;;9.82;84.40;100799.34;106156;1268;22564;-56
2022/10/06 01:26:10;;;;;;;13.20;3.50;;;;;;;9.82;84.53;100798.30;106172;1268;25271;-58
2022/10/06 01:28:43;;;;;;;12.00;3.40;;;;;;;9.83;84.62;100801.20;106249;1267;25234;-57
2022/10/06 01:31:15;;;;;;;14.70;4.00;;;;;;;9.81;84.62;100798.19;106211;1268;22518;-56
2022/10/06 01:33:50;;;;;;;16.10;3.80;;;;;;;9.81;84.74;100796.21;106142;1268;25416;-59
2022/10/06 01:36:22;;;;;;;13.70;3.40;;;;;;;9.81;84.81;100793.52;106057;1268;24306;-58
2022/10/06 01:38:54;;;;;;;16.50;3.90;;;;;;;9.80;84.78;100793.05;106255;1265;22596;-57
2022/10/06 01:41:26;;;;;;;13.50;2.50;;;;;;;9.79;85.10;100794.34;106094;1268;22513;-65
2022/10/06 01:43:57;;;;;;;13.10;2.40;;;;;;;9.77;85.07;100801.77;106432;1268;22538;-58
2022/10/06 01:46:30;;;;;;;9.70;2.10;;;;;;;9.75;85.16;100799.06;106207;1268;22561;-59
2022/10/06 01:49:01;;;;;;;9.00;2.20;;;;;;;9.74;84.98;100795.43;106233;1268;26447;-58
2022/10/06 01:51:32;;;;;;;10.00;1.80;;;;;;;9.73;85.13;100798.89;106061;1268;22561;-58
2022/10/06 01:54:04;;;;;;;9.70;2.50;;;;;;;9.73;84.96;100799.77;106184;1268;25289;-58
2022/10/06 01:56:35;;;;;;;10.90;2.00;;;;;;;9.73;84.95;100805.03;106092;1268;22678;-58
2022/10/06 01:59:06;;;;;;;9.90;2.00;;;;;;;9.71;85.24;100807.33;106168;1268;22704;-57
2022/10/06 02:01:38;;;;;;;9.10;1.80;;;;;;;9.69;85.12;100812.92;106306;1266;24265;-58
2022/10/06 02:04:10;;;;;;;10.40;2.10;;;;;;;9.68;85.31;100808.11;106483;1268;25442;-58
2022/10/06 02:06:41;;;;;;;10.40;2.00;;;;;;;9.68;85.28;100812.55;106330;1268;25569;-58
2022/10/06 02:09:12;;;;;;;14.20;2.00;;;;;;;9.69;85.37;100813.86;106227;1268;22521;-59
2022/10/06 02:11:43;;;;;;;12.90;2.40;;;;;;;9.69;85.34;100813.08;106197;1265;25293;-58
2022/10/06 02:14:16;;;;;;;11.40;2.30;;;;;;;9.68;85.40;100813.81;106274;1267;24210;-58
2022/10/06 02:16:48;;;;;;;7.90;2.00;;;;;;;9.67;85.59;100815.95;106423;1268;26015;-58
2022/10/06 02:19:19;;;;;;;9.30;2.10;;;;;;;9.66;85.72;100813.93;106122;1268;24393;-59
2022/10/06 02:21:50;;;;;;;8.40;1.80;;;;;;;9.65;85.75;100815.23;106130;1268;22544;-58
2022/10/06 02:24:21;;;;;;;13.40;3.10;;;;;;;9.66;86.02;100818.55;106228;1265;22541;-57
2022/10/06 02:26:52;;;;;;;13.00;2.10;;;;;;;9.68;86.20;100819.64;106119;1268;22669;-57
2022/10/06 02:29:24;;;;;;;9.20;1.90;;;;;;;9.70;86.24;100820.52;106183;1268;22583;-59
2022/10/06 02:31:55;;;;;;;8.00;2.40;;;;;;;9.72;86.28;100820.52;106203;1268;22588;-58
2022/10/06 02:34:27;;;;;;;10.00;2.30;;;;;;;9.74;86.35;100820.44;106115;1268;25282;-57
2022/10/06 02:36:59;;;;;;;9.20;1.80;;;;;;;9.77;86.34;100824.30;106371;1268;27634;-57
2022/10/06 02:39:30;;;;;;;19.20;1.80;;;;;;;9.80;86.63;100827.12;106471;1268;24233;-58
2022/10/06 02:42:03;;;;;;;9.80;1.70;;;;;;;9.84;86.87;100829.77;106425;1268;25294;-58
2022/10/06 02:44:34;;;;;;;6.60;1.60;;;;;;;9.88;87.40;100832.23;106112;1268;22548;-56
2022/10/06 02:47:06;;;;;;;8.60;1.60;;;;;;;9.93;87.36;100834.44;106212;1268;22604;-58
2022/10/06 02:49:37;;;;;;;9.10;1.90;;;;;;;9.96;87.71;100839.10;106275;1268;22684;-58
2022/10/06 02:52:10;;;;;;;7.00;1.80;;;;;;;10.00;88.00;100838.43;106276;1266;22518;-57
2022/10/06 02:54:41;;;;;;;7.90;1.70;;;;;;;10.04;88.25;100835.07;106084;1268;24502;-56
2022/10/06 02:57:13;;;;;;;9.70;1.80;;;;;;;10.08;88.37;100838.19;106197;1268;24570;-59
2022/10/06 02:59:45;;;;;;;6.30;1.50;;;;;;;10.11;88.57;100841.42;106366;1268;22611;-58
2022/10/06 03:02:16;;;;;;;7.90;1.60;;;;;;;10.17;89.15;100846.94;106235;1268;22564;-57
2022/10/06 03:04:47;;;;;;;7.70;2.10;;;;;;;10.23;89.52;100845.23;106376;1268;25177;-57
2022/10/06 03:07:19;;;;;;;6.70;1.70;;;;;;;10.30;89.67;100847.90;106375;1265;22518;-58
2022/10/06 03:09:50;;;;;;;9.70;1.90;;;;;;;10.36;89.86;100850.02;106201;1266;22620;-58
2022/10/06 03:12:22;;;;;;;10.80;2.10;;;;;;;10.43;90.21;100851.79;106285;1268;22640;-57
2022/10/06 03:14:53;;;;;;;6.80;1.90;;;;;;;10.52;90.61;100857.95;106276;1268;22562;-57
2022/10/06 03:17:25;;;;;;;8.00;1.80;;;;;;;10.60;90.52;100857.45;106385;1265;24344;-58
2022/10/06 03:19:56;;;;;;;5.80;1.70;;;;;;;10.66;90.38;100861.35;106338;1268;22522;-57
2022/10/06 03:22:29;;;;;;;7.50;1.60;;;;;;;10.71;90.40;100863.20;106258;1268;22691;-54
2022/10/06 03:25:01;;;;;;;7.70;1.70;;;;;;;10.79;90.63;100864.84;106195;1268;25275;-57
2022/10/06 03:27:32;;;;;;;8.30;1.90;;;;;;;10.86;90.63;100869.81;106114;1266;25303;-57
2022/10/06 03:30:05;;;;;;;10.20;1.80;;;;;;;10.92;90.74;100864.50;106090;1268;24599;-58
2022/10/06 03:32:37;;;;;;;8.90;1.70;;;;;;;11.00;90.75;100864.95;106109;1265;25487;-57
2022/10/06 03:35:10;;;;;;;8.10;1.70;;;;;;;11.07;90.76;100868.52;106158;1268;22541;-59
2022/10/06 03:37:42;;;;;;;6.70;1.70;;;;;;;11.15;90.80;100873.44;106305;1268;22512;-57
2022/10/06 03:40:13;;;;;;;7.30;1.70;;;;;;;11.21;90.75;100877.48;106190;1268;25479;-58
2022/10/06 03:42:45;;;;;;;7.70;1.90;;;;;;;11.27;90.68;100878.96;106175;1268;25309;-58
2022/10/06 03:45:17;;;;;;;7.20;1.50;;;;;;;11.31;90.33;100875.65;106157;1265;22531;-58
2022/10/06 03:47:49;;;;;;;9.30;1.80;;;;;;;11.33;90.26;100877.42;106420;1268;22521;-57
2022/10/06 03:50:21;;;;;;;6.50;1.70;;;;;;;11.35;90.33;100881.89;106123;1268;22676;-58
2022/10/06 03:52:52;;;;;;;5.20;1.70;;;;;;;11.37;90.16;100881.85;105967;1266;22510;-58
2022/10/06 03:55:23;;;;;;;6.90;1.80;;;;;;;11.38;90.32;100884.42;106051;1268;23920;-56
2022/10/06 03:57:56;;;;;;;7.80;1.80;;;;;;;11.40;90.25;100884.73;106095;1268;25366;-57
2022/10/06 04:00:27;;;;;;;8.80;1.90;;;;;;;11.43;90.23;100888.66;106280;1265;22553;-58
2022/10/06 04:02:59;;;;;;;9.80;2.10;;;;;;;11.44;90.16;100890.27;106075;1268;24242;-58
2022/10/06 04:05:30;;;;;;;8.50;1.90;;;;;;;11.45;90.31;100896.20;106090;1268;24208;-56
2022/10/06 04:08:01;;;;;;;5.50;1.70;;;;;;;11.47;90.21;100902.02;106326;1266;22554;-59
2022/10/06 04:10:33;;;;;;;11.90;1.90;;;;;;;11.47;90.09;100905.14;106470;1266;22606;-58
2022/10/06 04:13:04;;;;;;;8.80;2.10;;;;;;;11.48;90.32;100907.25;106430;1265;26498;-57
2022/10/06 04:15:36;;;;;;;10.80;2.10;;;;;;;11.49;90.18;100909.20;106262;1268;22853;-58
2022/10/06 04:18:07;;;;;;;9.80;2.50;;;;;;;11.49;90.03;100915.65;106264;1265;25544;-58
2022/10/06 04:20:39;;;;;;;5.90;1.50;;;;;;;11.48;89.97;100916.98;106155;1266;22523;-58
2022/10/06 04:23:11;;;;;;;8.00;1.60;;;;;;;11.48;89.94;100914.82;106277;1268;22547;-60
2022/10/06 04:25:42;;;;;;;7.00;1.60;;;;;;;11.49;90.21;100918.70;108073;1265;25352;-57
2022/10/06 04:28:15;;;;;;;7.50;1.50;;;;;;;11.51;90.17;100919.02;106182;1265;25400;-57
2022/10/06 04:30:55;;;;;;;7.20;1.90;;;;;;;11.53;90.06;100923.54;106033;1268;25503;-58
2022/10/06 04:33:27;;;;;;;7.30;1.40;;;;;;;11.56;90.07;100922.94;106082;1268;24247;-58
2022/10/06 04:36:05;;;;;;;9.70;1.90;;;;;;;11.57;90.05;100924.31;106298;1265;25446;-58
2022/10/06 04:38:37;;;;;;;10.40;1.70;;;;;;;11.59;90.08;100927.44;106580;1268;23189;-60
2022/10/06 04:41:12;;;;;;;6.70;1.70;;;;;;;11.60;90.07;100930.83;106596;1268;22549;-59
2022/10/06 04:43:46;;;;;;;9.60;1.70;;;;;;;11.60;89.93;100937.14;106758;1268;25602;-59
2022/10/06 04:46:19;;;;;;;12.00;2.20;;;;;;;11.59;89.82;100935.84;106608;1268;22541;-56
2022/10/06 04:48:52;;;;;;;16.00;2.50;;;;;;;11.58;89.87;100941.92;106091;1268;24301;-59
2022/10/06 04:51:25;;;;;;;10.10;2.40;;;;;;;11.57;89.62;100944.38;106104;1268;25419;-58
2022/10/06 04:53:56;;;;;;;14.00;3.40;;;;;;;11.55;89.63;100948.20;106150;1268;22572;-57
2022/10/06 04:56:30;;;;;;;13.20;3.10;;;;;;;11.54;89.56;100947.65;106169;1265;22618;-58
2022/10/06 04:59:02;;;;;;;10.40;2.60;;;;;;;11.52;89.48;100953.25;106353;1266;25315;-58
2022/10/06 05:01:37;;;;;;;10.40;2.30;;;;;;;11.49;89.32;100952.81;106372;1267;22525;-58
2022/10/06 05:04:09;;;;;;;10.50;2.00;;;;;;;11.46;89.33;100966.46;106213;1266;22537;-58
2022/10/06 05:06:42;;;;;;;10.60;2.30;;;;;;;11.43;89.28;100967.30;106304;1268;22560;-57
2022/10/06 05:09:15;;;;;;;10.10;2.60;;;;;;;11.41;89.21;100974.17;106243;1268;22545;-57
2022/10/06 05:11:47;;;;;;;12.10;2.20;;;;;;;11.39;89.15;100979.36;106061;1268;22545;-56
2022/10/06 05:14:18;;;;;;;7.70;2.00;;;;;;;11.36;89.44;100981.35;106113;1268;22629;-57
2022/10/06 05:16:49;;;;;;;10.00;1.90;;;;;;;11.35;89.42;100985.38;106146;1268;25393;-58
2022/10/06 05:19:20;;;;;;;7.40;1.80;;;;;;;11.34;89.20;100984.94;106138;1268;24415;-57
2022/10/06 05:21:52;;;;;;;9.90;2.00;;;;;;;11.32;89.25;100988.55;106097;1268;22542;-57
2022/10/06 05:24:23;;;;;;;9.30;2.00;;;;;;;11.31;89.31;100998.96;106089;1268;22802;-57
2022/10/06 05:26:55;;;;;;;9.80;2.00;;;;;;;11.31;89.45;100997.88;105985;1268;23339;-57
2022/10/06 05:29:26;;;;;;;10.20;1.80;;;;;;;11.30;89.68;101002.38;106570;1267;22786;-58
2022/10/06 05:31:58;;;;;;;6.40;2.00;;;;;;;11.28;89.31;101004.52;106101;1266;24412;-58
2022/10/06 05:34:31;;;;;;;9.30;1.90;;;;;;;11.28;89.38;101010.14;106280;1268;25172;-58
2022/10/06 05:37:02;;;;;;;9.50;2.10;;;;;;;11.26;89.42;101007.02;106171;1268;24305;-56
2022/10/06 05:39:34;;;;;;;7.60;1.70;;;;;;;11.26;89.52;101013.44;106064;1268;25496;-56
2022/10/06 05:42:05;;;;;;;11.40;2.90;;;;;;;11.25;89.44;101012.27;106123;1268;22540;-57
2022/10/06 05:44:37;;;;;;;16.10;4.20;;;;;;;11.24;89.53;101014.67;106062;1266;25303;-56
2022/10/06 05:47:09;;;;;;;12.60;3.10;;;;;;;11.25;89.59;101018.50;106132;1265;22550;-57
2022/10/06 05:49:40;;;;;;;11.50;2.60;;;;;;;11.26;89.61;101026.27;106172;1268;25336;-57
2022/10/06 05:52:11;;;;;;;12.40;2.40;;;;;;;11.27;89.82;101025.27;106132;1268;25082;-56
2022/10/06 05:54:43;;;;;;;8.90;2.00;;;;;;;11.28;89.78;101030.98;106078;1265;22568;-57
2022/10/06 05:57:15;;;;;;;8.50;2.10;;;;;;;11.29;90.05;101030.92;106250;1268;22608;-57
2022/10/06 05:59:46;;;;;;;12.20;3.20;;;;;;;11.32;90.38;101039.67;106358;1268;22537;-57
2022/10/06 06:02:17;;;;;;;11.80;2.90;;;;;;;11.34;90.27;101047.16;106182;1268;24378;-57
2022/10/06 06:04:48;;;;;;;12.30;2.50;;;;;;;11.37;90.29;101054.40;106162;1268;24870;-57
2022/10/06 06:07:20;;;;;;;10.40;2.20;;;;;;;11.38;90.16;101051.20;106101;1265;22534;-57
2022/10/06 06:09:52;;;;;;;7.80;1.70;;;;;;;11.42;90.52;101054.90;106064;1268;22529;-57
2022/10/06 06:12:23;;;;;;;8.70;2.20;;;;;;;11.45;90.61;101056.44;106159;1267;24196;-56
2022/10/06 06:17:44;;;;;;;8.70;2.30;;;;;;;11.52;90.85;101062.93;106006;1268;25277;-57
2022/10/06 06:20:15;;;;;;;10.40;2.20;;;;;;;11.55;90.85;101074.20;106076;1268;25353;-55
2022/10/06 06:22:51;;;;;;;12.10;2.50;;;;;;;11.59;90.94;101074.14;106120;1268;26631;-56
2022/10/06 06:25:23;;;;;;;14.90;2.20;;;;;;;11.62;91.01;101076.69;106104;1268;22672;-58
2022/10/06 06:27:56;;;;;;;12.30;2.90;;;;;;;11.66;91.14;101078.14;106299;1268;24296;-57
2022/10/06 06:30:27;;;;;;;17.00;3.10;;;;;;;11.70;91.26;101082.22;106149;1268;22522;-57
2022/10/06 06:32:59;;;;;;;8.20;2.00;;;;;;;11.75;91.31;101086.79;106200;1268;22534;-58
2022/10/06 06:35:31;;;;;;;10.80;2.50;;;;;;;11.82;91.73;101090.64;106175;1268;25321;-57
2022/10/06 06:38:02;;;;;;;19.30;3.90;;;;;;;11.89;91.51;101096.08;106223;1268;22745;-57
2022/10/06 06:40:34;;;;;;;9.30;2.40;;;;;;;11.94;91.39;101098.70;106272;1268;24274;-56
2022/10/06 06:43:05;;;;;;;9.40;2.00;;;;;;;12.00;91.69;101103.56;106059;1265;22684;-57
2022/10/06 06:45:37;;;;;;;9.70;2.30;;;;;;;12.09;91.86;101109.88;106277;1266;23147;-56
2022/10/06 06:48:13;;;;;;;9.60;2.30;;;;;;;12.18;92.05;101115.04;106394;1268;24292;-58
2022/10/06 06:50:45;;;;;;;9.80;2.30;;;;;;;12.29;91.82;101120.58;106066;1268;22526;-56
2022/10/06 06:53:17;;;;;;;12.40;2.80;;;;;;;12.36;91.75;101120.02;106094;1268;24246;-58
2022/10/06 06:55:52;;;;;;;9.50;1.90;;;;;;;12.44;91.85;101122.45;106162;1268;24405;-57
2022/10/06 06:58:23;;;;;;;10.80;2.10;;;;;;;12.49;91.66;101124.08;106305;1268;24512;-59
2022/10/06 07:00:54;;;;;;;15.00;2.40;;;;;;;12.57;91.79;101128.40;106169;1268;22735;-57
2022/10/06 07:03:28;;;;;;;12.30;2.60;;;;;;;12.65;91.87;101128.45;106506;1265;22702;-57
2022/10/06 07:06:08;;;;;;;8.60;2.10;;;;;;;12.74;91.79;101135.55;106364;1268;25469;-56
2022/10/06 07:08:42;;;;;;;9.00;2.00;;;;;;;12.82;91.92;101135.83;106487;1266;25605;-56
2022/10/06 07:11:16;;;;;;;9.40;2.00;;;;;;;12.89;91.79;101134.94;106200;1267;22534;-57
2022/10/06 07:13:51;;;;;;;14.50;3.10;;;;;;;12.97;92.01;101135.95;106164;1268;25129;-57
2022/10/06 07:25:07;;;;;;;10.40;2.00;;;;;;;13.43;91.86;101139.66;105997;1268;22610;-57
2022/10/06 07:27:43;;;;;;;11.90;2.60;;;;;;;13.57;92.13;101143.08;106087;1268;24550;-58
2022/10/06 07:30:18;;;;;;;15.40;3.30;;;;;;;13.77;92.22;101147.54;105983;1268;22787;-57
2022/10/06 07:32:52;;;;;;;8.10;1.80;;;;;;;13.95;92.29;101149.48;106101;1268;22675;-57
2022/10/06 07:35:24;;;;;;;8.70;2.10;;;;;;;14.13;92.05;101144.82;106013;1268;25503;-58
2022/10/06 07:37:57;;;;;;;10.30;2.20;;;;;;;14.31;91.88;101148.92;106054;1268;22541;-57
2022/10/06 07:40:28;;;;;;;9.50;2.00;;;;;;;14.51;91.63;101159.83;106035;1265;24316;-55
2022/10/06 07:43:01;;;;;;;11.90;2.00;;;;;;;14.66;91.01;101156.77;106083;1268;24195;-57
2022/10/06 07:45:40;;;;;;;7.60;1.60;;;;;;;14.79;90.85;101158.63;106122;1268;25468;-57
2022/10/06 07:48:13;;;;;;;11.10;1.50;;;;;;;14.90;90.54;101163.05;106181;1268;22602;-57
2022/10/06 07:50:46;;;;;;;9.40;2.00;;;;;;;15.03;90.64;101163.46;106250;1266;25392;-57
2022/10/06 07:53:19;;;;;;;9.30;2.10;;;;;;;15.18;90.55;101167.79;106240;1265;22611;-58
2022/10/06 07:55:50;;;;;;;9.40;1.60;;;;;;;15.30;90.36;101168.95;106246;1265;22632;-58
2022/10/06 07:58:23;;;;;;;7.20;1.70;;;;;;;15.41;90.27;101168.15;106154;1265;22691;-58
2022/10/06 08:00:54;;;;;;;9.50;1.70;;;;;;;15.57;90.04;101175.24;106051;1265;23119;-58
2022/10/06 08:03:26;;;;;;;6.40;1.40;;;;;;;15.72;89.73;101181.16;106160;1268;24208;-59
2022/10/06 08:06:01;;;;;;;8.30;1.40;;;;;;;15.87;89.20;101182.98;106286;1268;25702;-58
2022/10/06 08:08:35;;;;;;;7.60;1.40;;;;;;;16.04;88.86;101184.11;106053;1268;22684;-58
2022/10/06 08:11:09;;;;;;;5.90;1.20;;;;;;;16.17;88.71;101192.42;106108;1268;23420;-58
2022/10/06 08:13:42;;;;;;;10.10;1.20;;;;;;;16.30;88.32;101193.27;106202;1268;22694;-58
2022/10/06 08:16:15;;;;;;;8.10;1.70;;;;;;;16.44;87.61;101197.48;106078;1268;24041;-58
2022/10/06 08:18:52;;;;;;;4.30;1.00;;;;;;;16.58;87.05;101206.97;106126;1268;22953;-58
2022/10/06 08:21:25;;;;;;;4.50;1.10;;;;;;;16.70;86.18;101206.93;106116;1267;22600;-58
2022/10/06 08:23:58;;;;;;;9.40;1.80;;;;;;;16.82;86.24;101210.13;106147;1268;25346;-58
2022/10/06 08:26:30;;;;;;;8.10;1.50;;;;;;;16.94;85.40;101218.60;106067;1268;22584;-58
2022/10/06 08:29:02;;;;;;;5.30;1.10;;;;;;;17.06;84.98;101224.39;106123;1266;22696;-57
2022/10/06 08:31:33;;;;;;;9.20;1.10;;;;;;;17.15;84.77;101227.90;106065;1268;22517;-57
2022/10/06 08:34:07;;;;;;;6.90;1.40;;;;;;;17.23;83.87;101231.08;106158;1265;25340;-57
2022/10/06 08:36:40;;;;;;;7.40;0.90;;;;;;;17.31;83.02;101234.13;106128;1268;26519;-58
2022/10/06 08:39:13;;;;;;;4.70;1.10;;;;;;;17.37;83.14;101242.03;106061;1268;25343;-58
2022/10/06 08:41:50;;;;;;;5.70;0.70;;;;;;;17.41;82.83;101245.96;106055;1268;25337;-58
2022/10/06 08:44:30;;;;;;;5.00;1.30;;;;;;;17.46;81.76;101253.52;106109;1266;24378;-58
2022/10/06 08:47:06;;;;;;;7.30;1.00;;;;;;;17.52;81.92;101254.43;106234;1268;22680;-58
2022/10/06 08:49:41;;;;;;;9.30;1.10;;;;;;;17.59;81.52;101258.38;106154;1267;25309;-58
2022/10/06 08:52:25;;;;;;;6.60;1.00;;;;;;;17.64;81.00;101266.72;106070;1268;24330;-59
2022/10/06 08:55:10;;;;;;;3.70;0.90;;;;;;;17.67;80.90;101271.22;106085;1268;22609;-59
2022/10/06 08:57:50;;;;;;;10.50;1.00;;;;;;;17.69;80.64;101271.95;106029;1268;25207;-59
2022/10/06 09:00:24;;;;;;;10.60;1.10;;;;;;;17.71;80.30;101276.88;106213;1268;22571;-59
2022/10/06 09:02:56;;;;;;;7.10;0.70;;;;;;;17.72;80.03;101280.59;106141;1268;24303;-60
2022/10/06 09:05:29;;;;;;;8.20;1.20;;;;;;;17.71;79.77;101280.48;106179;1268;25321;-59
2022/10/06 09:08:23;;;;;;;3.90;0.70;;;;;;;17.69;79.61;101289.00;106226;1268;22519;-59
2022/10/06 09:11:13;;;;;;;7.00;0.90;;;;;;;17.68;79.83;101290.98;106147;1268;22847;-58
2022/10/06 09:13:52;;;;;;;4.70;1.00;;;;;;;17.69;79.35;101294.48;106158;1268;23143;-58
2022/10/06 09:16:30;;;;;;;8.50;1.10;;;;;;;17.71;79.29;101289.83;106083;1268;22609;-59
2022/10/06 09:19:11;;;;;;;3.40;0.80;;;;;;;17.72;79.27;101291.33;106181;1268;22606;-59
2022/10/06 09:21:46;;;;;;;3.10;0.80;;;;;;;17.71;79.20;101297.38;106184;1268;22537;-59
2022/10/06 09:24:25;;;;;;;5.00;0.80;;;;;;;17.71;78.67;101304.87;106138;1264;25288;-59
2022/10/06 09:26:59;;;;;;;4.20;0.90;;;;;;;17.67;78.46;101309.73;106152;1268;25381;-59
2022/10/06 09:29:32;;;;;;;6.30;0.80;;;;;;;17.68;78.60;101311.73;106045;1268;25232;-59
2022/10/06 09:32:03;;;;;;;3.40;0.80;;;;;;;17.75;78.90;101318.35;106123;1268;22611;-59
2022/10/06 09:34:40;;;;;;;5.60;1.00;;;;;;;17.87;78.64;101313.40;106142;1268;22647;-59
2022/10/06 09:37:13;;;;;;;4.60;0.80;;;;;;;17.96;78.22;101320.80;106161;1268;24361;-59
2022/10/06 09:39:48;;;;;;;6.40;1.20;;;;;;;18.04;77.53;101329.42;106138;1268;22521;-59
2022/10/06 09:42:22;;;;;;;4.90;1.20;;;;;;;18.10;77.71;101329.83;106158;1267;22538;-58
2022/10/06 09:45:00;;;;;;;4.20;0.80;;;;;;;18.14;77.68;101328.19;106192;1268;23208;-59
2022/10/06 09:47:44;;;;;;;3.50;0.90;;;;;;;18.16;77.10;101336.64;106126;1265;24414;-59
2022/10/06 09:50:34;;;;;;;6.10;1.20;;;;;;;18.14;77.04;101342.73;106304;1268;25184;-60
2022/10/06 09:53:16;;;;;;;3.90;0.70;;;;;;;18.08;76.47;101347.44;106141;1268;25452;-60
2022/10/06 09:55:56;;;;;;;5.70;1.30;;;;;;;17.98;76.15;101358.77;106131;1268;23269;-59
2022/10/06 09:58:33;;;;;;;8.00;0.90;;;;;;;17.90;76.72;101358.27;106541;1268;26701;-59
2022/10/06 10:01:07;;;;;;;6.80;1.00;;;;;;;17.83;77.02;101358.77;106151;1268;23117;-60
2022/10/06 10:03:50;;;;;;;6.80;1.00;;;;;;;17.76;76.88;101361.95;106155;1267;25123;-60
2022/10/06 10:06:27;;;;;;;7.70;0.90;;;;;;;17.68;76.97;101370.27;106164;1268;24160;-60
2022/10/06 10:09:24;;;;;;;5.50;1.30;;;;;;;17.60;77.08;101376.10;106151;1268;22608;-59
2022/10/06 10:12:29;;;;;;;3.80;0.80;;;;;;;17.49;77.19;101382.41;105643;1271;24910;-60
2022/10/06 10:15:23;;;;;;;8.00;1.10;;;;;;;17.38;77.51;101382.14;105808;1271;25236;-60
2022/10/06 10:17:57;;;;;;;5.60;1.00;;;;;;;17.30;77.65;101390.52;105680;1271;22777;-59
2022/10/06 10:20:34;;;;;;;11.90;1.40;;;;;;;17.22;77.65;101394.14;105684;1271;25522;-58
2022/10/06 10:23:19;;;;;;;6.30;1.00;;;;;;;17.15;77.72;101400.05;105755;1271;22616;-59
2022/10/06 10:26:17;;;;;;;5.20;1.10;;;;;;;17.08;77.97;101402.97;105731;1271;25461;-60
2022/10/06 10:29:11;;;;;;;8.30;1.30;;;;;;;17.03;78.15;101404.61;105633;1271;25505;-60
2022/10/06 10:31:54;;;;;;;4.20;0.90;;;;;;;16.97;78.05;101406.66;105739;1271;22734;-60
2022/10/06 10:34:49;;;;;;;5.80;1.00;;;;;;;16.93;77.81;101410.34;105594;1271;24429;-60
2022/10/06 10:37:25;;;;;;;5.60;0.80;;;;;;;16.86;77.58;101412.36;105701;1271;25541;-61
2022/10/06 10:40:01;;;;;;;3.10;1.00;;;;;;;16.80;77.79;101415.48;105717;1271;25392;-58
2022/10/06 10:42:37;;;;;;;5.10;1.00;;;;;;;16.76;77.90;101423.77;105710;1271;22563;-58
2022/10/06 10:45:17;;;;;;;4.40;0.90;;;;;;;16.72;78.18;101424.48;105608;1271;24235;-58
2022/10/06 10:47:51;;;;;;;5.30;0.90;;;;;;;16.70;78.17;101426.55;105687;1271;24371;-62
2022/10/06 10:50:27;;;;;;;7.30;1.10;;;;;;;16.69;78.09;101429.02;105429;1265;1001617;-59
2022/10/06 10:53:07;;;;;;;4.50;0.60;;;;;;;16.67;77.23;101435.56;106173;1268;22615;-59
2022/10/06 10:55:43;;;;;;;2.80;0.50;;;;;;;16.63;75.53;101440.02;106137;1268;22549;-59
2022/10/06 10:58:22;;;;;;;5.00;0.40;;;;;;;16.59;75.49;101441.04;106139;1267;22813;-60
2022/10/06 11:00:57;;;;;;;2.90;0.30;;;;;;;16.55;74.80;101443.38;106208;1268;24296;-59
2022/10/06 11:03:28;;;;;;;2.40;0.30;;;;;;;16.51;74.18;101450.24;106069;1266;24279;-59
2022/10/06 11:06:24;;;;;;;3.80;0.40;;;;;;;16.47;74.26;101448.73;106318;1268;23057;-60
2022/10/06 11:09:02;;;;;;;2.10;0.30;;;;;;;16.44;73.99;101448.43;106097;1268;22571;-59
2022/10/06 11:11:53;;;;;;;3.50;0.50;;;;;;;16.43;74.07;101446.11;106128;1265;22552;-59
2022/10/06 11:14:40;;;;;;;1.30;0.20;;;;;;;16.43;74.21;101453.27;106078;1268;24382;-59
2022/10/06 11:17:19;;;;;;;4.80;0.40;;;;;;;16.42;74.18;101460.29;106292;1266;22558;-59
2022/10/06 11:19:59;;;;;;;4.50;0.30;;;;;;;16.44;73.89;101465.27;106117;1268;22717;-59
2022/10/06 11:22:41;;;;;;;1.40;0.20;;;;;;;16.44;73.79;101466.31;106502;1265;24387;-59
2022/10/06 11:25:26;;;;;;;4.20;0.30;;;;;;;16.46;73.19;101471.36;106207;1268;22569;-58
2022/10/06 11:28:08;;;;;;;4.70;0.40;;;;;;;16.50;73.12;101471.29;106185;1268;25390;-59
2022/10/06 11:30:52;;;;;;;3.90;0.30;;;;;;;16.58;72.87;101473.05;106062;1268;22565;-59
2022/10/06 11:33:29;;;;;;;1.60;0.10;;;;;;;16.65;72.52;101474.75;106108;1268;26474;-58
2022/10/06 11:36:01;;;;;;;3.50;0.30;;;;;;;16.72;72.65;101476.59;106004;1268;22529;-59
2022/10/06 11:38:40;;;;;;;4.20;0.40;;;;;;;16.78;72.30;101478.45;106132;1267;22610;-58
2022/10/06 11:41:20;;;;;;;2.20;0.30;;;;;;;16.81;71.36;101475.48;106271;1268;22634;-57
2022/10/06 11:43:59;;;;;;;10.00;0.30;;;;;;;16.82;71.62;101480.30;106107;1265;22706;-59
2022/10/06 11:46:38;;;;;;;1.20;0.30;;;;;;;16.85;70.44;101484.95;106052;1268;24280;-57
2022/10/06 11:49:56;;;;;;;4.10;0.30;;;;;;;16.84;70.04;101488.08;106072;1265;24341;-59
2022/10/06 11:52:46;;;;;;;1.70;0.20;;;;;;;16.82;68.22;101493.65;106422;1265;23198;-59
2022/10/06 11:55:22;;;;;;;2.00;0.20;;;;;;;16.79;68.37;101492.83;106108;1268;22557;-58
2022/10/06 11:58:15;;;;;;;3.10;0.30;;;;;;;16.77;68.96;101493.78;106185;1267;22538;-58
2022/10/06 12:00:50;;;;;;;3.30;0.30;;;;;;;16.76;68.38;101499.97;106283;1265;23773;-59
2022/10/06 12:03:44;;;;;;;2.20;0.30;;;;;;;16.75;68.80;101492.16;106027;1265;25510;-59